Hlavní strana
METAR-TAF:

METAR-TAF

Letiště :

Peking, Čína

Letiště Peking

zeměpisná šířka: 39-56N, zeměpisná délka: 116-17E, výška: 55 m

Aktuální stav počasí

Zpráva byla vytvořena před 22 minutami, v 07:00 UTC
Jihovýchodní vítr 6 kt, proměnlivý mezi východojihovýchodním a jižním
Teplota 3°C
Vlhkost vzduchu 48%
Tlak 1023 hPa
Viditelnost 10 km a více
Žádná oblačnost pod 1500 m, nevyskytují se cumulonimby.

METAR: ZBAA 200700Z 13003MPS 110V170 CAVOK 03/M07 Q1023 NOSIG

Čas: 15:22 (07:22 UTC)

Předpověď počasí

Zpráva byla vytvořena před 4 hodinami a 2 minutami, v 03:20 UTC
Předpověď platná od 20 v 06 UTC do 21 v 06 UTC
Jihovýchodní vítr 8 kt
Viditelnost: 6000 m

TAF: ZBAA 200320Z 2006/2106 14004MPS 6000 NSC TX06/2007Z TNM06/21Z

Stav a předpovědi počasí z více než 4 000 letišť (zprávy METAR a TAF).

Červené a žluté tečky na mapě představují dostupné meteorologické stanice.

Když kurzor umístíte na tečku, zobrazí se název stanice.

Pak kliknutím zobrazíte stav a předpověď počasí.

Chcete-li změnit mapu, kliknutím na zelené tlačítko se znaménkem +mapu přiblížíte, kliknutím na zelené tlačítko se znaménkem – mapu oddálíte a kliknutím na zelené šipky přejdete na sousední mapy.


METAR-TAF: